sensor_id;sensor_type;location;lat;lon;timestamp;temperature;humidity
76102;SHT30;64830;46.910;6.354;2023-02-28T00:00:32;-0.91;67.01
76102;SHT30;64830;46.910;6.354;2023-02-28T00:02:57;-0.91;67.38
76102;SHT30;64830;46.910;6.354;2023-02-28T00:05:24;-0.93;67.26
76102;SHT30;64830;46.910;6.354;2023-02-28T00:07:51;-0.95;67.31
76102;SHT30;64830;46.910;6.354;2023-02-28T00:10:19;-0.96;67.19
76102;SHT30;64830;46.910;6.354;2023-02-28T00:12:49;-0.97;67.21
76102;SHT30;64830;46.910;6.354;2023-02-28T00:15:16;-1.00;67.39
76102;SHT30;64830;46.910;6.354;2023-02-28T00:17:42;-1.03;67.42
76102;SHT30;64830;46.910;6.354;2023-02-28T00:20:09;-1.03;67.58
76102;SHT30;64830;46.910;6.354;2023-02-28T00:22:38;-1.06;67.62
76102;SHT30;64830;46.910;6.354;2023-02-28T00:25:04;-1.06;67.67
76102;SHT30;64830;46.910;6.354;2023-02-28T00:27:32;-1.06;68.00
76102;SHT30;64830;46.910;6.354;2023-02-28T00:29:57;-1.07;67.75
76102;SHT30;64830;46.910;6.354;2023-02-28T00:32:23;-1.07;67.69
76102;SHT30;64830;46.910;6.354;2023-02-28T00:34:48;-1.10;67.84
76102;SHT30;64830;46.910;6.354;2023-02-28T00:37:14;-1.09;67.93
76102;SHT30;64830;46.910;6.354;2023-02-28T00:39:39;-1.10;68.13
76102;SHT30;64830;46.910;6.354;2023-02-28T00:42:06;-1.13;68.42
76102;SHT30;64830;46.910;6.354;2023-02-28T00:44:31;-1.10;68.05
76102;SHT30;64830;46.910;6.354;2023-02-28T00:46:58;-1.12;68.09
76102;SHT30;64830;46.910;6.354;2023-02-28T00:49:24;-1.10;68.15
76102;SHT30;64830;46.910;6.354;2023-02-28T00:51:49;-1.09;68.11
76102;SHT30;64830;46.910;6.354;2023-02-28T00:54:16;-1.06;67.97
76102;SHT30;64830;46.910;6.354;2023-02-28T00:56:41;-1.06;68.00
76102;SHT30;64830;46.910;6.354;2023-02-28T00:59:06;-1.03;68.04
76102;SHT30;64830;46.910;6.354;2023-02-28T01:01:32;-1.02;68.02
76102;SHT30;64830;46.910;6.354;2023-02-28T01:03:58;-1.02;68.11
76102;SHT30;64830;46.910;6.354;2023-02-28T01:06:23;-1.02;68.07
76102;SHT30;64830;46.910;6.354;2023-02-28T01:08:49;-0.97;68.25
76102;SHT30;64830;46.910;6.354;2023-02-28T01:11:16;-0.99;68.17
76102;SHT30;64830;46.910;6.354;2023-02-28T01:13:42;-1.00;68.32
76102;SHT30;64830;46.910;6.354;2023-02-28T01:16:08;-1.02;68.53
76102;SHT30;64830;46.910;6.354;2023-02-28T01:18:34;-1.05;68.37
76102;SHT30;64830;46.910;6.354;2023-02-28T01:21:09;-1.00;68.36
76102;SHT30;64830;46.910;6.354;2023-02-28T01:23:36;-0.97;68.27
76102;SHT30;64830;46.910;6.354;2023-02-28T01:26:13;-0.96;68.55
76102;SHT30;64830;46.910;6.354;2023-02-28T01:28:39;-0.93;68.42
76102;SHT30;64830;46.910;6.354;2023-02-28T01:31:04;-0.88;68.21
76102;SHT30;64830;46.910;6.354;2023-02-28T01:33:31;-0.85;68.15
76102;SHT30;64830;46.910;6.354;2023-02-28T01:36:17;-0.82;68.34
76102;SHT30;64830;46.910;6.354;2023-02-28T01:38:44;-0.84;68.13
76102;SHT30;64830;46.910;6.354;2023-02-28T01:41:16;-0.79;68.05
76102;SHT30;64830;46.910;6.354;2023-02-28T01:46:10;-0.75;68.13
76102;SHT30;64830;46.910;6.354;2023-02-28T01:48:44;-0.75;68.15
76102;SHT30;64830;46.910;6.354;2023-02-28T01:51:15;-0.72;68.14
76102;SHT30;64830;46.910;6.354;2023-02-28T01:53:46;-0.74;67.96
76102;SHT30;64830;46.910;6.354;2023-02-28T01:56:16;-0.74;67.88
76102;SHT30;64830;46.910;6.354;2023-02-28T01:58:47;-0.74;67.88
76102;SHT30;64830;46.910;6.354;2023-02-28T02:01:12;-0.72;67.91
76102;SHT30;64830;46.910;6.354;2023-02-28T02:03:49;-0.75;67.94
76102;SHT30;64830;46.910;6.354;2023-02-28T02:06:22;-0.72;67.93
76102;SHT30;64830;46.910;6.354;2023-02-28T02:08:48;-0.72;68.09
76102;SHT30;64830;46.910;6.354;2023-02-28T02:11:17;-0.75;68.00
76102;SHT30;64830;46.910;6.354;2023-02-28T02:24:45;-0.86;68.14
76102;SHT30;64830;46.910;6.354;2023-02-28T02:30:19;-0.95;68.38
76102;SHT30;64830;46.910;6.354;2023-02-28T02:35:56;-1.13;69.01
76102;SHT30;64830;46.910;6.354;2023-02-28T02:38:50;-1.16;69.11
76102;SHT30;64830;46.910;6.354;2023-02-28T02:41:47;-1.20;69.28
76102;SHT30;64830;46.910;6.354;2023-02-28T02:44:38;-1.20;69.24
76102;SHT30;64830;46.910;6.354;2023-02-28T02:47:11;-1.24;69.08
76102;SHT30;64830;46.910;6.354;2023-02-28T02:49:42;-1.26;69.13
76102;SHT30;64830;46.910;6.354;2023-02-28T02:52:11;-1.24;69.18
76102;SHT30;64830;46.910;6.354;2023-02-28T02:54:40;-1.21;69.16
76102;SHT30;64830;46.910;6.354;2023-02-28T02:57:09;-1.20;69.08
76102;SHT30;64830;46.910;6.354;2023-02-28T02:59:38;-1.20;69.10
76102;SHT30;64830;46.910;6.354;2023-02-28T03:02:07;-1.19;69.13
76102;SHT30;64830;46.910;6.354;2023-02-28T03:04:48;-1.20;69.07
76102;SHT30;64830;46.910;6.354;2023-02-28T03:07:16;-1.20;69.09
76102;SHT30;64830;46.910;6.354;2023-02-28T03:09:50;-1.19;69.09
76102;SHT30;64830;46.910;6.354;2023-02-28T03:12:16;-1.17;69.02
76102;SHT30;64830;46.910;6.354;2023-02-28T03:15:07;-1.16;69.07
76102;SHT30;64830;46.910;6.354;2023-02-28T03:18:03;-1.14;69.04
76102;SHT30;64830;46.910;6.354;2023-02-28T03:23:23;-1.16;69.20
76102;SHT30;64830;46.910;6.354;2023-02-28T03:25:59;-1.14;69.15
76102;SHT30;64830;46.910;6.354;2023-02-28T03:28:41;-1.14;69.09
76102;SHT30;64830;46.910;6.354;2023-02-28T03:31:15;-1.14;69.23
76102;SHT30;64830;46.910;6.354;2023-02-28T03:33:50;-1.16;69.19
76102;SHT30;64830;46.910;6.354;2023-02-28T03:36:23;-1.12;69.16
76102;SHT30;64830;46.910;6.354;2023-02-28T03:38:56;-1.09;69.20
76102;SHT30;64830;46.910;6.354;2023-02-28T03:41:31;-1.06;69.08
76102;SHT30;64830;46.910;6.354;2023-02-28T03:44:12;-1.06;69.10
76102;SHT30;64830;46.910;6.354;2023-02-28T03:46:46;-1.06;69.10
76102;SHT30;64830;46.910;6.354;2023-02-28T03:49:30;-1.07;69.43
76102;SHT30;64830;46.910;6.354;2023-02-28T03:51:59;-1.13;69.56
76102;SHT30;64830;46.910;6.354;2023-02-28T03:54:31;-1.16;69.52
76102;SHT30;64830;46.910;6.354;2023-02-28T03:57:15;-1.14;69.61
76102;SHT30;64830;46.910;6.354;2023-02-28T03:59:47;-1.07;69.68
76102;SHT30;64830;46.910;6.354;2023-02-28T04:02:14;-1.03;69.58
76102;SHT30;64830;46.910;6.354;2023-02-28T04:04:39;-1.05;69.45
76102;SHT30;64830;46.910;6.354;2023-02-28T04:07:11;-1.05;69.37
76102;SHT30;64830;46.910;6.354;2023-02-28T04:09:37;-1.02;69.34
76102;SHT30;64830;46.910;6.354;2023-02-28T04:12:03;-0.97;69.48
76102;SHT30;64830;46.910;6.354;2023-02-28T04:14:28;-1.03;69.26
76102;SHT30;64830;46.910;6.354;2023-02-28T04:16:54;-0.99;69.28
76102;SHT30;64830;46.910;6.354;2023-02-28T04:19:19;-0.99;69.36
76102;SHT30;64830;46.910;6.354;2023-02-28T04:21:48;-0.97;69.50
76102;SHT30;64830;46.910;6.354;2023-02-28T04:24:16;-0.97;69.42
76102;SHT30;64830;46.910;6.354;2023-02-28T04:26:45;-0.96;69.22
76102;SHT30;64830;46.910;6.354;2023-02-28T04:29:13;-0.96;69.16
76102;SHT30;64830;46.910;6.354;2023-02-28T04:31:39;-0.97;69.20
76102;SHT30;64830;46.910;6.354;2023-02-28T04:34:04;-0.97;69.09
76102;SHT30;64830;46.910;6.354;2023-02-28T04:36:30;-0.99;69.11
76102;SHT30;64830;46.910;6.354;2023-02-28T04:38:56;-0.96;69.06
76102;SHT30;64830;46.910;6.354;2023-02-28T04:41:22;-0.99;69.10
76102;SHT30;64830;46.910;6.354;2023-02-28T04:43:48;-0.97;69.00
76102;SHT30;64830;46.910;6.354;2023-02-28T04:46:13;-0.99;69.02
76102;SHT30;64830;46.910;6.354;2023-02-28T04:48:39;-1.03;68.98
76102;SHT30;64830;46.910;6.354;2023-02-28T04:51:09;-1.05;69.12
76102;SHT30;64830;46.910;6.354;2023-02-28T04:53:36;-1.06;69.10
76102;SHT30;64830;46.910;6.354;2023-02-28T04:56:02;-1.05;69.02
76102;SHT30;64830;46.910;6.354;2023-02-28T04:58:28;-1.06;69.08
76102;SHT30;64830;46.910;6.354;2023-02-28T05:01:05;-1.10;69.39
76102;SHT30;64830;46.910;6.354;2023-02-28T05:03:41;-1.16;69.25
76102;SHT30;64830;46.910;6.354;2023-02-28T05:06:07;-1.20;69.30
76102;SHT30;64830;46.910;6.354;2023-02-28T05:08:33;-1.24;69.38
76102;SHT30;64830;46.910;6.354;2023-02-28T05:10:58;-1.21;69.48
76102;SHT30;64830;46.910;6.354;2023-02-28T05:13:26;-1.23;69.50
76102;SHT30;64830;46.910;6.354;2023-02-28T05:15:52;-1.26;69.53
76102;SHT30;64830;46.910;6.354;2023-02-28T05:18:17;-1.26;69.57
76102;SHT30;64830;46.910;6.354;2023-02-28T05:20:43;-1.26;69.58
76102;SHT30;64830;46.910;6.354;2023-02-28T05:23:11;-1.30;69.64
76102;SHT30;64830;46.910;6.354;2023-02-28T05:25:36;-1.31;69.63
76102;SHT30;64830;46.910;6.354;2023-02-28T05:28:02;-1.34;69.83
76102;SHT30;64830;46.910;6.354;2023-02-28T05:30:27;-1.39;70.27
76102;SHT30;64830;46.910;6.354;2023-02-28T05:32:52;-1.41;70.45
76102;SHT30;64830;46.910;6.354;2023-02-28T05:35:18;-1.47;70.29
76102;SHT30;64830;46.910;6.354;2023-02-28T05:37:43;-1.47;70.12
76102;SHT30;64830;46.910;6.354;2023-02-28T05:40:09;-1.44;70.13
76102;SHT30;64830;46.910;6.354;2023-02-28T05:42:36;-1.43;70.09
76102;SHT30;64830;46.910;6.354;2023-02-28T05:45:01;-1.41;69.97
76102;SHT30;64830;46.910;6.354;2023-02-28T05:47:27;-1.43;69.82
76102;SHT30;64830;46.910;6.354;2023-02-28T05:49:52;-1.40;69.93
76102;SHT30;64830;46.910;6.354;2023-02-28T05:52:17;-1.41;69.91
76102;SHT30;64830;46.910;6.354;2023-02-28T05:54:43;-1.43;69.89
76102;SHT30;64830;46.910;6.354;2023-02-28T05:57:08;-1.41;69.85
76102;SHT30;64830;46.910;6.354;2023-02-28T05:59:33;-1.43;69.89
76102;SHT30;64830;46.910;6.354;2023-02-28T06:01:59;-1.43;69.82
76102;SHT30;64830;46.910;6.354;2023-02-28T06:04:24;-1.46;70.01
76102;SHT30;64830;46.910;6.354;2023-02-28T06:06:50;-1.44;70.21
76102;SHT30;64830;46.910;6.354;2023-02-28T06:09:16;-1.48;70.13
76102;SHT30;64830;46.910;6.354;2023-02-28T06:11:42;-1.48;70.01
76102;SHT30;64830;46.910;6.354;2023-02-28T06:14:14;-1.51;69.91
76102;SHT30;64830;46.910;6.354;2023-02-28T06:16:40;-1.52;70.00
76102;SHT30;64830;46.910;6.354;2023-02-28T06:19:05;-1.51;70.01
76102;SHT30;64830;46.910;6.354;2023-02-28T06:21:31;-1.51;69.98
76102;SHT30;64830;46.910;6.354;2023-02-28T06:23:57;-1.52;70.08
76102;SHT30;64830;46.910;6.354;2023-02-28T06:26:23;-1.50;70.06
76102;SHT30;64830;46.910;6.354;2023-02-28T06:28:49;-1.51;69.97
76102;SHT30;64830;46.910;6.354;2023-02-28T06:31:16;-1.54;70.01
76102;SHT30;64830;46.910;6.354;2023-02-28T06:33:43;-1.52;70.13
76102;SHT30;64830;46.910;6.354;2023-02-28T06:36:10;-1.51;70.08
76102;SHT30;64830;46.910;6.354;2023-02-28T06:38:37;-1.52;70.14
76102;SHT30;64830;46.910;6.354;2023-02-28T06:41:03;-1.50;70.13
76102;SHT30;64830;46.910;6.354;2023-02-28T06:43:33;-1.51;70.23
76102;SHT30;64830;46.910;6.354;2023-02-28T06:46:00;-1.51;70.17
76102;SHT30;64830;46.910;6.354;2023-02-28T06:48:27;-1.50;70.09
76102;SHT30;64830;46.910;6.354;2023-02-28T06:51:02;-1.48;70.03
76102;SHT30;64830;46.910;6.354;2023-02-28T06:53:27;-1.50;70.11
76102;SHT30;64830;46.910;6.354;2023-02-28T06:55:53;-1.44;70.04
76102;SHT30;64830;46.910;6.354;2023-02-28T06:58:18;-1.44;70.03
76102;SHT30;64830;46.910;6.354;2023-02-28T07:00:45;-1.44;70.03
76102;SHT30;64830;46.910;6.354;2023-02-28T07:03:12;-1.43;70.08
76102;SHT30;64830;46.910;6.354;2023-02-28T07:05:39;-1.40;70.25
76102;SHT30;64830;46.910;6.354;2023-02-28T07:08:05;-1.37;70.29
76102;SHT30;64830;46.910;6.354;2023-02-28T07:10:32;-1.36;70.32
76102;SHT30;64830;46.910;6.354;2023-02-28T07:12:58;-1.34;70.60
76102;SHT30;64830;46.910;6.354;2023-02-28T07:15:24;-1.36;70.42
76102;SHT30;64830;46.910;6.354;2023-02-28T07:17:49;-1.31;70.44
76102;SHT30;64830;46.910;6.354;2023-02-28T07:20:15;-1.27;70.32
76102;SHT30;64830;46.910;6.354;2023-02-28T07:22:41;-1.24;70.30
76102;SHT30;64830;46.910;6.354;2023-02-28T07:25:07;-1.26;70.48
76102;SHT30;64830;46.910;6.354;2023-02-28T07:27:32;-1.20;70.47
76102;SHT30;64830;46.910;6.354;2023-02-28T07:29:59;-1.16;70.25
76102;SHT30;64830;46.910;6.354;2023-02-28T07:32:27;-1.14;70.22
76102;SHT30;64830;46.910;6.354;2023-02-28T07:34:52;-1.09;70.28
76102;SHT30;64830;46.910;6.354;2023-02-28T07:37:18;-1.05;70.13
76102;SHT30;64830;46.910;6.354;2023-02-28T07:39:43;-1.02;70.19
76102;SHT30;64830;46.910;6.354;2023-02-28T07:42:09;-0.97;70.20
76102;SHT30;64830;46.910;6.354;2023-02-28T07:44:40;-0.93;70.02
76102;SHT30;64830;46.910;6.354;2023-02-28T07:47:11;-0.84;70.16
76102;SHT30;64830;46.910;6.354;2023-02-28T07:49:37;-0.68;70.08
76102;SHT30;64830;46.910;6.354;2023-02-28T07:52:06;-0.51;70.00
76102;SHT30;64830;46.910;6.354;2023-02-28T07:54:33;-0.33;69.68
76102;SHT30;64830;46.910;6.354;2023-02-28T07:56:58;-0.13;69.40
76102;SHT30;64830;46.910;6.354;2023-02-28T07:59:24;0.09;69.31
76102;SHT30;64830;46.910;6.354;2023-02-28T08:01:49;0.19;68.45
76102;SHT30;64830;46.910;6.354;2023-02-28T08:04:16;0.33;68.41
76102;SHT30;64830;46.910;6.354;2023-02-28T08:06:42;0.40;68.15
76102;SHT30;64830;46.910;6.354;2023-02-28T08:09:08;0.52;68.09
76102;SHT30;64830;46.910;6.354;2023-02-28T08:11:33;0.60;67.95
76102;SHT30;64830;46.910;6.354;2023-02-28T08:13:58;0.63;67.27
76102;SHT30;64830;46.910;6.354;2023-02-28T08:16:24;0.64;67.10
76102;SHT30;64830;46.910;6.354;2023-02-28T08:18:51;0.64;67.03
76102;SHT30;64830;46.910;6.354;2023-02-28T08:21:16;0.63;67.13
76102;SHT30;64830;46.910;6.354;2023-02-28T08:23:42;0.60;66.94
76102;SHT30;64830;46.910;6.354;2023-02-28T08:26:08;0.54;66.92
76102;SHT30;64830;46.910;6.354;2023-02-28T08:28:33;0.52;66.76
76102;SHT30;64830;46.910;6.354;2023-02-28T08:30:59;0.47;67.36
76102;SHT30;64830;46.910;6.354;2023-02-28T08:33:25;0.50;67.28
76102;SHT30;64830;46.910;6.354;2023-02-28T08:35:55;0.50;67.20
76102;SHT30;64830;46.910;6.354;2023-02-28T08:38:21;0.46;66.92
76102;SHT30;64830;46.910;6.354;2023-02-28T08:40:47;0.43;67.15
76102;SHT30;64830;46.910;6.354;2023-02-28T08:43:12;0.40;67.42
76102;SHT30;64830;46.910;6.354;2023-02-28T08:45:37;0.45;67.34
76102;SHT30;64830;46.910;6.354;2023-02-28T08:48:03;0.46;67.22
76102;SHT30;64830;46.910;6.354;2023-02-28T08:50:28;0.43;66.93
76102;SHT30;64830;46.910;6.354;2023-02-28T08:52:54;0.39;67.41
76102;SHT30;64830;46.910;6.354;2023-02-28T08:55:19;0.39;67.18
76102;SHT30;64830;46.910;6.354;2023-02-28T08:57:44;0.42;67.25
76102;SHT30;64830;46.910;6.354;2023-02-28T09:00:10;0.43;67.40
76102;SHT30;64830;46.910;6.354;2023-02-28T09:02:38;0.46;67.64
76102;SHT30;64830;46.910;6.354;2023-02-28T09:05:04;0.52;67.51
76102;SHT30;64830;46.910;6.354;2023-02-28T09:07:29;0.58;67.45
76102;SHT30;64830;46.910;6.354;2023-02-28T09:09:55;0.67;66.63
76102;SHT30;64830;46.910;6.354;2023-02-28T09:12:24;0.71;67.19
76102;SHT30;64830;46.910;6.354;2023-02-28T09:14:51;0.75;67.11
76102;SHT30;64830;46.910;6.354;2023-02-28T09:17:16;0.85;66.89
76102;SHT30;64830;46.910;6.354;2023-02-28T09:19:42;0.98;66.68
76102;SHT30;64830;46.910;6.354;2023-02-28T09:22:08;1.11;66.61
76102;SHT30;64830;46.910;6.354;2023-02-28T09:24:36;1.23;66.49
76102;SHT30;64830;46.910;6.354;2023-02-28T09:27:02;1.30;66.08
76102;SHT30;64830;46.910;6.354;2023-02-28T09:29:27;1.35;66.13
76102;SHT30;64830;46.910;6.354;2023-02-28T09:31:53;1.43;65.88
76102;SHT30;64830;46.910;6.354;2023-02-28T09:34:18;1.48;65.54
76102;SHT30;64830;46.910;6.354;2023-02-28T09:36:44;1.56;65.57
76102;SHT30;64830;46.910;6.354;2023-02-28T09:39:10;1.60;65.47
76102;SHT30;64830;46.910;6.354;2023-02-28T09:41:42;1.60;65.36
76102;SHT30;64830;46.910;6.354;2023-02-28T09:44:21;1.65;65.53
76102;SHT30;64830;46.910;6.354;2023-02-28T09:46:52;1.71;65.46
76102;SHT30;64830;46.910;6.354;2023-02-28T09:49:31;1.73;65.00
76102;SHT30;64830;46.910;6.354;2023-02-28T09:52:03;1.74;64.89
76102;SHT30;64830;46.910;6.354;2023-02-28T09:54:31;1.81;64.80
76102;SHT30;64830;46.910;6.354;2023-02-28T09:57:17;1.84;65.31
76102;SHT30;64830;46.910;6.354;2023-02-28T10:05:43;2.02;63.92
76102;SHT30;64830;46.910;6.354;2023-02-28T10:08:17;2.06;64.52
76102;SHT30;64830;46.910;6.354;2023-02-28T10:11:06;2.19;64.23
76102;SHT30;64830;46.910;6.354;2023-02-28T10:16:25;2.48;63.35
76102;SHT30;64830;46.910;6.354;2023-02-28T10:19:14;2.71;64.43
76102;SHT30;64830;46.910;6.354;2023-02-28T10:21:47;3.06;63.42
76102;SHT30;64830;46.910;6.354;2023-02-28T10:24:30;3.31;60.56
76102;SHT30;64830;46.910;6.354;2023-02-28T10:29:55;3.65;62.34
76102;SHT30;64830;46.910;6.354;2023-02-28T10:32:25;3.86;61.59
76102;SHT30;64830;46.910;6.354;2023-02-28T10:37:43;4.26;60.95
76102;SHT30;64830;46.910;6.354;2023-02-28T10:40:27;4.40;60.39
76102;SHT30;64830;46.910;6.354;2023-02-28T10:42:56;4.58;59.91
76102;SHT30;64830;46.910;6.354;2023-02-28T10:45:22;4.75;59.90
76102;SHT30;64830;46.910;6.354;2023-02-28T10:47:55;4.89;58.96
76102;SHT30;64830;46.910;6.354;2023-02-28T10:50:43;5.00;58.61
76102;SHT30;64830;46.910;6.354;2023-02-28T10:56:14;4.93;58.53
76102;SHT30;64830;46.910;6.354;2023-02-28T11:01:23;4.92;58.26
76102;SHT30;64830;46.910;6.354;2023-02-28T11:03:49;4.92;57.82
76102;SHT30;64830;46.910;6.354;2023-02-28T11:06:28;4.89;57.89
76102;SHT30;64830;46.910;6.354;2023-02-28T11:09:03;4.76;57.07
76102;SHT30;64830;46.910;6.354;2023-02-28T11:11:30;4.75;58.57
76102;SHT30;64830;46.910;6.354;2023-02-28T11:14:20;4.82;58.07
76102;SHT30;64830;46.910;6.354;2023-02-28T11:16:46;4.81;58.75
76102;SHT30;64830;46.910;6.354;2023-02-28T11:19:40;4.69;58.28
76102;SHT30;64830;46.910;6.354;2023-02-28T11:22:09;4.68;58.38
76102;SHT30;64830;46.910;6.354;2023-02-28T11:24:44;4.67;58.94
76102;SHT30;64830;46.910;6.354;2023-02-28T11:29:50;4.57;58.63
76102;SHT30;64830;46.910;6.354;2023-02-28T11:32:22;4.38;58.66
76102;SHT30;64830;46.910;6.354;2023-02-28T11:35:14;4.30;58.56
76102;SHT30;64830;46.910;6.354;2023-02-28T11:37:41;4.16;58.54
76102;SHT30;64830;46.910;6.354;2023-02-28T11:40:15;3.96;58.78
76102;SHT30;64830;46.910;6.354;2023-02-28T11:43:38;3.83;58.96
76102;SHT30;64830;46.910;6.354;2023-02-28T11:45:56;3.71;59.70
76102;SHT30;64830;46.910;6.354;2023-02-28T11:49:06;3.72;59.68
76102;SHT30;64830;46.910;6.354;2023-02-28T12:00:07;3.88;60.01
76102;SHT30;64830;46.910;6.354;2023-02-28T12:08:26;4.06;60.02
76102;SHT30;64830;46.910;6.354;2023-02-28T12:11:43;4.17;59.50
76102;SHT30;64830;46.910;6.354;2023-02-28T12:14:14;4.20;59.72
76102;SHT30;64830;46.910;6.354;2023-02-28T12:26:57;4.55;59.25
76102;SHT30;64830;46.910;6.354;2023-02-28T12:29:29;4.69;59.18
76102;SHT30;64830;46.910;6.354;2023-02-28T12:31:58;4.86;58.98
76102;SHT30;64830;46.910;6.354;2023-02-28T12:34:37;5.00;58.51
76102;SHT30;64830;46.910;6.354;2023-02-28T12:37:11;4.99;58.06
76102;SHT30;64830;46.910;6.354;2023-02-28T12:39:44;4.99;58.48
76102;SHT30;64830;46.910;6.354;2023-02-28T12:42:24;5.07;57.50
76102;SHT30;64830;46.910;6.354;2023-02-28T12:44:59;5.12;57.65
76102;SHT30;64830;46.910;6.354;2023-02-28T12:47:26;5.20;57.22
76102;SHT30;64830;46.910;6.354;2023-02-28T12:50:08;5.16;57.64
76102;SHT30;64830;46.910;6.354;2023-02-28T12:55:29;5.17;58.15
76102;SHT30;64830;46.910;6.354;2023-02-28T13:01:34;5.10;57.91
76102;SHT30;64830;46.910;6.354;2023-02-28T13:03:41;4.95;57.24
76102;SHT30;64830;46.910;6.354;2023-02-28T13:09:05;4.69;57.09
76102;SHT30;64830;46.910;6.354;2023-02-28T13:11:45;4.61;58.07
76102;SHT30;64830;46.910;6.354;2023-02-28T13:14:24;4.58;57.94
76102;SHT30;64830;46.910;6.354;2023-02-28T13:19:56;4.44;58.34
76102;SHT30;64830;46.910;6.354;2023-02-28T13:24:57;4.32;58.68
76102;SHT30;64830;46.910;6.354;2023-02-28T13:27:39;4.38;59.02
76102;SHT30;64830;46.910;6.354;2023-02-28T13:35:46;4.69;58.20
76102;SHT30;64830;46.910;6.354;2023-02-28T13:38:34;4.71;58.41
76102;SHT30;64830;46.910;6.354;2023-02-28T13:49:33;4.82;58.59
76102;SHT30;64830;46.910;6.354;2023-02-28T14:00:02;5.00;57.95
76102;SHT30;64830;46.910;6.354;2023-02-28T14:05:06;5.09;58.18
76102;SHT30;64830;46.910;6.354;2023-02-28T14:11:02;5.13;57.95
76102;SHT30;64830;46.910;6.354;2023-02-28T14:13:11;5.12;57.56
76102;SHT30;64830;46.910;6.354;2023-02-28T14:15:46;5.13;57.55
76102;SHT30;64830;46.910;6.354;2023-02-28T14:20:49;5.06;57.46
76102;SHT30;64830;46.910;6.354;2023-02-28T14:23:32;5.10;57.99
76102;SHT30;64830;46.910;6.354;2023-02-28T14:31:58;5.23;57.49
76102;SHT30;64830;46.910;6.354;2023-02-28T14:37:16;5.09;57.61
76102;SHT30;64830;46.910;6.354;2023-02-28T14:39:44;5.00;57.91
76102;SHT30;64830;46.910;6.354;2023-02-28T14:42:35;4.95;58.18
76102;SHT30;64830;46.910;6.354;2023-02-28T14:45:03;4.99;58.12
76102;SHT30;64830;46.910;6.354;2023-02-28T14:47:33;5.07;58.57
76102;SHT30;64830;46.910;6.354;2023-02-28T14:50:01;5.10;58.13
76102;SHT30;64830;46.910;6.354;2023-02-28T14:52:31;5.13;57.50
76102;SHT30;64830;46.910;6.354;2023-02-28T14:55:04;5.13;58.27
76102;SHT30;64830;46.910;6.354;2023-02-28T14:57:34;5.19;58.24
76102;SHT30;64830;46.910;6.354;2023-02-28T15:00:12;5.24;58.31
76102;SHT30;64830;46.910;6.354;2023-02-28T15:02:39;5.24;58.65
76102;SHT30;64830;46.910;6.354;2023-02-28T15:07:43;5.41;58.29
76102;SHT30;64830;46.910;6.354;2023-02-28T15:13:04;5.51;58.06
76102;SHT30;64830;46.910;6.354;2023-02-28T15:15:56;5.51;57.95
76102;SHT30;64830;46.910;6.354;2023-02-28T15:21:01;5.48;58.96
76102;SHT30;64830;46.910;6.354;2023-02-28T15:23:28;5.40;58.97
76102;SHT30;64830;46.910;6.354;2023-02-28T15:25:54;5.30;59.59
76102;SHT30;64830;46.910;6.354;2023-02-28T15:28:22;5.26;59.26
76102;SHT30;64830;46.910;6.354;2023-02-28T15:31:02;5.22;59.83
76102;SHT30;64830;46.910;6.354;2023-02-28T15:33:32;5.17;59.73
76102;SHT30;64830;46.910;6.354;2023-02-28T15:36:14;5.16;59.88
76102;SHT30;64830;46.910;6.354;2023-02-28T15:38:40;5.09;60.09
76102;SHT30;64830;46.910;6.354;2023-02-28T15:41:05;5.10;60.85
76102;SHT30;64830;46.910;6.354;2023-02-28T15:43:38;5.05;61.01
76102;SHT30;64830;46.910;6.354;2023-02-28T15:46:12;5.03;61.10
76102;SHT30;64830;46.910;6.354;2023-02-28T15:48:52;5.01;61.67
76102;SHT30;64830;46.910;6.354;2023-02-28T15:51:21;5.05;61.19
76102;SHT30;64830;46.910;6.354;2023-02-28T15:53:50;5.03;61.33
76102;SHT30;64830;46.910;6.354;2023-02-28T15:56:34;4.97;61.41
76102;SHT30;64830;46.910;6.354;2023-02-28T15:59:02;5.01;61.53
76102;SHT30;64830;46.910;6.354;2023-02-28T16:01:32;4.99;61.06
76102;SHT30;64830;46.910;6.354;2023-02-28T16:04:05;5.22;61.74
76102;SHT30;64830;46.910;6.354;2023-02-28T16:06:59;7.94;60.61
76102;SHT30;64830;46.910;6.354;2023-02-28T16:09:26;10.48;50.71
76102;SHT30;64830;46.910;6.354;2023-02-28T16:11:55;11.87;49.33
76102;SHT30;64830;46.910;6.354;2023-02-28T16:14:25;11.98;45.88
76102;SHT30;64830;46.910;6.354;2023-02-28T16:17:07;9.93;47.97
76102;SHT30;64830;46.910;6.354;2023-02-28T16:19:38;8.31;51.54
76102;SHT30;64830;46.910;6.354;2023-02-28T16:22:03;7.27;53.62
76102;SHT30;64830;46.910;6.354;2023-02-28T16:24:28;6.33;55.86
76102;SHT30;64830;46.910;6.354;2023-02-28T16:26:55;5.68;57.55
76102;SHT30;64830;46.910;6.354;2023-02-28T16:29:25;5.15;59.07
76102;SHT30;64830;46.910;6.354;2023-02-28T16:31:52;4.78;59.96
76102;SHT30;64830;46.910;6.354;2023-02-28T16:34:18;4.55;60.22
76102;SHT30;64830;46.910;6.354;2023-02-28T16:36:46;4.40;60.46
76102;SHT30;64830;46.910;6.354;2023-02-28T16:39:12;4.40;60.75
76102;SHT30;64830;46.910;6.354;2023-02-28T16:41:42;4.27;60.33
76102;SHT30;64830;46.910;6.354;2023-02-28T16:44:13;4.19;59.91
76102;SHT30;64830;46.910;6.354;2023-02-28T16:46:38;4.10;59.60
76102;SHT30;64830;46.910;6.354;2023-02-28T16:49:04;4.03;59.53
76102;SHT30;64830;46.910;6.354;2023-02-28T16:51:29;3.96;59.84
76102;SHT30;64830;46.910;6.354;2023-02-28T16:53:54;3.86;59.55
76102;SHT30;64830;46.910;6.354;2023-02-28T16:56:22;3.75;59.88
76102;SHT30;64830;46.910;6.354;2023-02-28T16:58:50;3.68;60.15
76102;SHT30;64830;46.910;6.354;2023-02-28T17:01:17;3.57;60.44
76102;SHT30;64830;46.910;6.354;2023-02-28T17:03:47;3.47;60.76
76102;SHT30;64830;46.910;6.354;2023-02-28T17:06:17;3.38;60.67
76102;SHT30;64830;46.910;6.354;2023-02-28T17:08:44;3.29;60.72
76102;SHT30;64830;46.910;6.354;2023-02-28T17:11:09;3.22;60.85
76102;SHT30;64830;46.910;6.354;2023-02-28T17:13:34;3.16;60.95
76102;SHT30;64830;46.910;6.354;2023-02-28T17:16:00;3.09;61.02
76102;SHT30;64830;46.910;6.354;2023-02-28T17:18:26;3.03;61.28
76102;SHT30;64830;46.910;6.354;2023-02-28T17:20:53;2.93;61.61
76102;SHT30;64830;46.910;6.354;2023-02-28T17:23:19;2.85;61.64
76102;SHT30;64830;46.910;6.354;2023-02-28T17:25:44;2.74;61.92
76102;SHT30;64830;46.910;6.354;2023-02-28T17:28:19;2.68;61.95
76102;SHT30;64830;46.910;6.354;2023-02-28T17:30:45;2.62;62.03
76102;SHT30;64830;46.910;6.354;2023-02-28T17:33:12;2.53;62.16
76102;SHT30;64830;46.910;6.354;2023-02-28T17:35:38;2.44;62.34
76102;SHT30;64830;46.910;6.354;2023-02-28T17:38:03;2.37;62.55
76102;SHT30;64830;46.910;6.354;2023-02-28T17:40:29;2.27;62.89
76102;SHT30;64830;46.910;6.354;2023-02-28T17:42:54;2.20;63.18
76102;SHT30;64830;46.910;6.354;2023-02-28T17:45:22;2.15;63.13
76102;SHT30;64830;46.910;6.354;2023-02-28T17:47:48;2.08;63.35
76102;SHT30;64830;46.910;6.354;2023-02-28T17:50:20;1.99;63.37
76102;SHT30;64830;46.910;6.354;2023-02-28T17:52:47;1.92;63.35
76102;SHT30;64830;46.910;6.354;2023-02-28T17:55:12;1.91;63.55
76102;SHT30;64830;46.910;6.354;2023-02-28T17:57:38;1.86;63.52
76102;SHT30;64830;46.910;6.354;2023-02-28T18:00:05;1.82;63.98
76102;SHT30;64830;46.910;6.354;2023-02-28T18:02:33;1.78;63.96
76102;SHT30;64830;46.910;6.354;2023-02-28T18:04:59;1.74;64.13